sensor_id;sensor_type;location;lat;lon;timestamp;temperature;humidity
15262;DHT22;7733;51.554;13.590;2022-10-26T00:00:36;9.40;99.90
15262;DHT22;7733;51.554;13.590;2022-10-26T00:03:01;9.40;99.90
15262;DHT22;7733;51.554;13.590;2022-10-26T00:05:27;9.50;99.90
15262;DHT22;7733;51.554;13.590;2022-10-26T00:07:52;9.50;99.90
15262;DHT22;7733;51.554;13.590;2022-10-26T00:10:18;9.50;99.90
15262;DHT22;7733;51.554;13.590;2022-10-26T00:12:48;9.50;99.90
15262;DHT22;7733;51.554;13.590;2022-10-26T00:15:15;9.50;99.90
15262;DHT22;7733;51.554;13.590;2022-10-26T00:17:42;9.50;99.90
15262;DHT22;7733;51.554;13.590;2022-10-26T00:20:08;9.50;99.90
15262;DHT22;7733;51.554;13.590;2022-10-26T00:22:34;9.50;99.90
15262;DHT22;7733;51.554;13.590;2022-10-26T00:24:59;9.50;99.90
15262;DHT22;7733;51.554;13.590;2022-10-26T00:27:25;9.40;99.90
15262;DHT22;7733;51.554;13.590;2022-10-26T00:29:50;9.40;99.90
15262;DHT22;7733;51.554;13.590;2022-10-26T00:32:16;9.40;99.90
15262;DHT22;7733;51.554;13.590;2022-10-26T00:34:42;9.30;99.90
15262;DHT22;7733;51.554;13.590;2022-10-26T00:37:07;9.40;99.90
15262;DHT22;7733;51.554;13.590;2022-10-26T00:39:33;9.30;99.90
15262;DHT22;7733;51.554;13.590;2022-10-26T00:41:59;9.30;99.90
15262;DHT22;7733;51.554;13.590;2022-10-26T00:44:58;9.30;99.90
15262;DHT22;7733;51.554;13.590;2022-10-26T00:47:52;9.20;99.90
15262;DHT22;7733;51.554;13.590;2022-10-26T00:50:31;9.20;99.90
15262;DHT22;7733;51.554;13.590;2022-10-26T00:53:02;9.10;99.90
15262;DHT22;7733;51.554;13.590;2022-10-26T00:55:32;9.10;99.90
15262;DHT22;7733;51.554;13.590;2022-10-26T00:58:05;9.10;99.90
15262;DHT22;7733;51.554;13.590;2022-10-26T01:00:32;9.10;99.90
15262;DHT22;7733;51.554;13.590;2022-10-26T01:03:00;9.20;99.90
15262;DHT22;7733;51.554;13.590;2022-10-26T01:05:31;9.10;99.90
15262;DHT22;7733;51.554;13.590;2022-10-26T01:07:58;9.10;99.90
15262;DHT22;7733;51.554;13.590;2022-10-26T01:10:25;9.10;99.90
15262;DHT22;7733;51.554;13.590;2022-10-26T01:12:52;9.10;99.90
15262;DHT22;7733;51.554;13.590;2022-10-26T01:15:23;9.00;99.90
15262;DHT22;7733;51.554;13.590;2022-10-26T01:18:05;9.00;99.90
15262;DHT22;7733;51.554;13.590;2022-10-26T01:20:49;9.00;99.90
15262;DHT22;7733;51.554;13.590;2022-10-26T01:29:46;9.00;99.90
15262;DHT22;7733;51.554;13.590;2022-10-26T01:32:37;8.90;99.90
15262;DHT22;7733;51.554;13.590;2022-10-26T01:38:24;8.90;99.90
15262;DHT22;7733;51.554;13.590;2022-10-26T01:44:01;8.70;99.90
15262;DHT22;7733;51.554;13.590;2022-10-26T01:46:34;8.70;99.90
15262;DHT22;7733;51.554;13.590;2022-10-26T01:49:07;8.70;99.90
15262;DHT22;7733;51.554;13.590;2022-10-26T01:51:37;8.60;99.90
15262;DHT22;7733;51.554;13.590;2022-10-26T01:54:06;8.60;99.90
15262;DHT22;7733;51.554;13.590;2022-10-26T01:56:37;8.70;99.90
15262;DHT22;7733;51.554;13.590;2022-10-26T02:02:24;8.70;99.90
15262;DHT22;7733;51.554;13.590;2022-10-26T02:08:06;8.60;99.90
15262;DHT22;7733;51.554;13.590;2022-10-26T02:10:54;8.60;99.90
15262;DHT22;7733;51.554;13.590;2022-10-26T02:13:35;8.50;99.90
15262;DHT22;7733;51.554;13.590;2022-10-26T02:21:25;8.30;99.90
15262;DHT22;7733;51.554;13.590;2022-10-26T02:23:58;8.40;99.90
15262;DHT22;7733;51.554;13.590;2022-10-26T02:26:26;8.30;99.90
15262;DHT22;7733;51.554;13.590;2022-10-26T02:28:56;8.30;99.90
15262;DHT22;7733;51.554;13.590;2022-10-26T02:31:27;8.20;99.90
15262;DHT22;7733;51.554;13.590;2022-10-26T02:33:56;8.10;99.90
15262;DHT22;7733;51.554;13.590;2022-10-26T02:36:29;8.10;99.90
15262;DHT22;7733;51.554;13.590;2022-10-26T02:39:00;8.10;99.90
15262;DHT22;7733;51.554;13.590;2022-10-26T02:41:29;8.10;99.90
15262;DHT22;7733;51.554;13.590;2022-10-26T02:44:25;8.20;99.90
15262;DHT22;7733;51.554;13.590;2022-10-26T02:46:54;8.20;99.90
15262;DHT22;7733;51.554;13.590;2022-10-26T02:49:21;8.10;99.90
15262;DHT22;7733;51.554;13.590;2022-10-26T02:52:10;8.10;99.90
15262;DHT22;7733;51.554;13.590;2022-10-26T02:55:47;8.10;99.90
15262;DHT22;7733;51.554;13.590;2022-10-26T02:57:56;8.10;99.90
15262;DHT22;7733;51.554;13.590;2022-10-26T03:00:25;8.00;99.90
15262;DHT22;7733;51.554;13.590;2022-10-26T03:02:58;8.00;99.90
15262;DHT22;7733;51.554;13.590;2022-10-26T03:05:26;8.10;99.90
15262;DHT22;7733;51.554;13.590;2022-10-26T03:07:54;8.10;99.90
15262;DHT22;7733;51.554;13.590;2022-10-26T03:10:20;8.10;99.90
15262;DHT22;7733;51.554;13.590;2022-10-26T03:12:46;8.10;99.90
15262;DHT22;7733;51.554;13.590;2022-10-26T03:15:13;8.00;99.90
15262;DHT22;7733;51.554;13.590;2022-10-26T03:17:39;7.90;99.90
15262;DHT22;7733;51.554;13.590;2022-10-26T03:20:05;7.80;99.90
15262;DHT22;7733;51.554;13.590;2022-10-26T03:22:31;7.90;99.90
15262;DHT22;7733;51.554;13.590;2022-10-26T03:24:57;7.90;99.90
15262;DHT22;7733;51.554;13.590;2022-10-26T03:27:23;7.90;99.90
15262;DHT22;7733;51.554;13.590;2022-10-26T03:29:48;7.90;99.90
15262;DHT22;7733;51.554;13.590;2022-10-26T03:32:14;7.90;99.90
15262;DHT22;7733;51.554;13.590;2022-10-26T03:34:39;7.90;99.90
15262;DHT22;7733;51.554;13.590;2022-10-26T03:37:05;7.80;99.90
15262;DHT22;7733;51.554;13.590;2022-10-26T03:39:31;7.80;99.90
15262;DHT22;7733;51.554;13.590;2022-10-26T03:41:56;7.70;99.90
15262;DHT22;7733;51.554;13.590;2022-10-26T03:44:22;7.70;99.90
15262;DHT22;7733;51.554;13.590;2022-10-26T03:46:48;7.80;99.90
15262;DHT22;7733;51.554;13.590;2022-10-26T03:49:13;7.70;99.90
15262;DHT22;7733;51.554;13.590;2022-10-26T03:51:39;7.80;99.90
15262;DHT22;7733;51.554;13.590;2022-10-26T03:54:05;7.80;99.90
15262;DHT22;7733;51.554;13.590;2022-10-26T03:56:30;7.70;99.90
15262;DHT22;7733;51.554;13.590;2022-10-26T03:58:56;7.70;99.90
15262;DHT22;7733;51.554;13.590;2022-10-26T04:01:22;7.70;99.90
15262;DHT22;7733;51.554;13.590;2022-10-26T04:03:47;7.70;99.90
15262;DHT22;7733;51.554;13.590;2022-10-26T04:06:13;7.70;99.90
15262;DHT22;7733;51.554;13.590;2022-10-26T04:08:39;7.60;99.90
15262;DHT22;7733;51.554;13.590;2022-10-26T04:11:04;7.50;99.90
15262;DHT22;7733;51.554;13.590;2022-10-26T04:13:30;7.40;99.90
15262;DHT22;7733;51.554;13.590;2022-10-26T04:15:57;7.50;99.90
15262;DHT22;7733;51.554;13.590;2022-10-26T04:18:22;7.50;99.90
15262;DHT22;7733;51.554;13.590;2022-10-26T04:20:48;7.40;99.90
15262;DHT22;7733;51.554;13.590;2022-10-26T04:23:16;7.40;99.90
15262;DHT22;7733;51.554;13.590;2022-10-26T04:25:43;7.30;99.90
15262;DHT22;7733;51.554;13.590;2022-10-26T04:28:11;7.20;99.90
15262;DHT22;7733;51.554;13.590;2022-10-26T04:30:38;7.20;99.90
15262;DHT22;7733;51.554;13.590;2022-10-26T04:33:05;7.30;99.90
15262;DHT22;7733;51.554;13.590;2022-10-26T04:35:31;7.30;99.90
15262;DHT22;7733;51.554;13.590;2022-10-26T04:38:00;7.30;99.90
15262;DHT22;7733;51.554;13.590;2022-10-26T04:40:29;7.30;99.90
15262;DHT22;7733;51.554;13.590;2022-10-26T04:42:56;7.30;99.90
15262;DHT22;7733;51.554;13.590;2022-10-26T04:45:22;7.30;99.90
15262;DHT22;7733;51.554;13.590;2022-10-26T04:47:58;7.30;99.90
15262;DHT22;7733;51.554;13.590;2022-10-26T04:50:25;7.30;99.90
15262;DHT22;7733;51.554;13.590;2022-10-26T04:52:52;7.30;99.90
15262;DHT22;7733;51.554;13.590;2022-10-26T04:55:18;7.40;99.90
15262;DHT22;7733;51.554;13.590;2022-10-26T04:57:43;7.40;99.90
15262;DHT22;7733;51.554;13.590;2022-10-26T05:00:10;7.40;99.90
15262;DHT22;7733;51.554;13.590;2022-10-26T05:02:36;7.40;99.90
15262;DHT22;7733;51.554;13.590;2022-10-26T05:05:01;7.40;99.90
15262;DHT22;7733;51.554;13.590;2022-10-26T05:07:27;7.40;99.90
15262;DHT22;7733;51.554;13.590;2022-10-26T05:09:53;7.40;99.90
15262;DHT22;7733;51.554;13.590;2022-10-26T05:12:18;7.30;99.90
15262;DHT22;7733;51.554;13.590;2022-10-26T05:14:44;7.30;99.90
15262;DHT22;7733;51.554;13.590;2022-10-26T05:17:10;7.30;99.90
15262;DHT22;7733;51.554;13.590;2022-10-26T05:19:35;7.20;99.90
15262;DHT22;7733;51.554;13.590;2022-10-26T05:22:01;7.10;99.90
15262;DHT22;7733;51.554;13.590;2022-10-26T05:24:27;7.10;99.90
15262;DHT22;7733;51.554;13.590;2022-10-26T05:26:52;7.10;99.90
15262;DHT22;7733;51.554;13.590;2022-10-26T05:29:18;7.10;99.90
15262;DHT22;7733;51.554;13.590;2022-10-26T05:31:43;7.10;99.90
15262;DHT22;7733;51.554;13.590;2022-10-26T05:34:09;7.10;99.90
15262;DHT22;7733;51.554;13.590;2022-10-26T05:36:35;7.00;99.90
15262;DHT22;7733;51.554;13.590;2022-10-26T05:39:01;7.00;99.90
15262;DHT22;7733;51.554;13.590;2022-10-26T05:41:26;7.10;99.90
15262;DHT22;7733;51.554;13.590;2022-10-26T05:43:52;7.00;99.90
15262;DHT22;7733;51.554;13.590;2022-10-26T05:46:17;7.00;99.90
15262;DHT22;7733;51.554;13.590;2022-10-26T05:48:43;6.90;99.90
15262;DHT22;7733;51.554;13.590;2022-10-26T05:51:09;6.90;99.90
15262;DHT22;7733;51.554;13.590;2022-10-26T05:53:37;6.90;99.90
15262;DHT22;7733;51.554;13.590;2022-10-26T05:56:09;7.00;99.90
15262;DHT22;7733;51.554;13.590;2022-10-26T05:58:41;7.00;99.90
15262;DHT22;7733;51.554;13.590;2022-10-26T06:01:25;7.10;99.90
15262;DHT22;7733;51.554;13.590;2022-10-26T06:04:21;7.10;99.90
15262;DHT22;7733;51.554;13.590;2022-10-26T06:06:55;7.00;99.90
15262;DHT22;7733;51.554;13.590;2022-10-26T06:09:22;7.00;99.90
15262;DHT22;7733;51.554;13.590;2022-10-26T06:11:48;6.80;99.90
15262;DHT22;7733;51.554;13.590;2022-10-26T06:14:14;6.50;99.90
15262;DHT22;7733;51.554;13.590;2022-10-26T06:16:58;6.30;99.90
15262;DHT22;7733;51.554;13.590;2022-10-26T06:20:16;6.50;99.90
15262;DHT22;7733;51.554;13.590;2022-10-26T06:31:44;7.00;99.90
15262;DHT22;7733;51.554;13.590;2022-10-26T06:34:13;7.10;99.90
15262;DHT22;7733;51.554;13.590;2022-10-26T06:36:48;7.10;99.90
15262;DHT22;7733;51.554;13.590;2022-10-26T06:39:15;7.10;99.90
15262;DHT22;7733;51.554;13.590;2022-10-26T06:41:42;7.30;99.90
15262;DHT22;7733;51.554;13.590;2022-10-26T06:44:14;7.20;99.90
15262;DHT22;7733;51.554;13.590;2022-10-26T06:47:06;7.20;99.90
15262;DHT22;7733;51.554;13.590;2022-10-26T06:50:02;7.20;99.90
15262;DHT22;7733;51.554;13.590;2022-10-26T06:52:40;7.40;99.90
15262;DHT22;7733;51.554;13.590;2022-10-26T06:55:14;7.30;99.90
15262;DHT22;7733;51.554;13.590;2022-10-26T06:57:41;7.30;99.90
15262;DHT22;7733;51.554;13.590;2022-10-26T07:00:22;7.20;99.90
15262;DHT22;7733;51.554;13.590;2022-10-26T07:02:49;7.20;99.90
15262;DHT22;7733;51.554;13.590;2022-10-26T07:05:16;7.40;99.90
15262;DHT22;7733;51.554;13.590;2022-10-26T07:07:44;7.60;99.90
15262;DHT22;7733;51.554;13.590;2022-10-26T07:10:12;7.80;99.90
15262;DHT22;7733;51.554;13.590;2022-10-26T07:12:38;7.90;99.90
15262;DHT22;7733;51.554;13.590;2022-10-26T07:15:05;8.10;99.90
15262;DHT22;7733;51.554;13.590;2022-10-26T07:17:44;8.20;99.90
15262;DHT22;7733;51.554;13.590;2022-10-26T07:20:13;8.20;99.90
15262;DHT22;7733;51.554;13.590;2022-10-26T07:22:39;8.20;99.90
15262;DHT22;7733;51.554;13.590;2022-10-26T07:25:07;8.40;99.90
15262;DHT22;7733;51.554;13.590;2022-10-26T07:27:33;8.50;99.90
15262;DHT22;7733;51.554;13.590;2022-10-26T07:29:59;8.70;99.90
15262;DHT22;7733;51.554;13.590;2022-10-26T07:32:25;8.80;99.90
15262;DHT22;7733;51.554;13.590;2022-10-26T07:34:51;9.00;99.90
15262;DHT22;7733;51.554;13.590;2022-10-26T07:37:16;9.00;99.90
15262;DHT22;7733;51.554;13.590;2022-10-26T07:39:42;9.20;99.90
15262;DHT22;7733;51.554;13.590;2022-10-26T07:42:08;9.40;99.90
15262;DHT22;7733;51.554;13.590;2022-10-26T07:44:34;9.50;99.90
15262;DHT22;7733;51.554;13.590;2022-10-26T07:46:59;9.60;99.90
15262;DHT22;7733;51.554;13.590;2022-10-26T07:49:25;9.70;99.90
15262;DHT22;7733;51.554;13.590;2022-10-26T07:51:50;9.90;99.90
15262;DHT22;7733;51.554;13.590;2022-10-26T07:54:16;10.00;99.90
15262;DHT22;7733;51.554;13.590;2022-10-26T07:56:42;10.00;99.90
15262;DHT22;7733;51.554;13.590;2022-10-26T07:59:10;10.10;99.90
15262;DHT22;7733;51.554;13.590;2022-10-26T08:01:37;10.20;99.90
15262;DHT22;7733;51.554;13.590;2022-10-26T08:04:03;10.30;99.90
15262;DHT22;7733;51.554;13.590;2022-10-26T08:06:28;10.40;99.90
15262;DHT22;7733;51.554;13.590;2022-10-26T08:08:54;10.60;99.90
15262;DHT22;7733;51.554;13.590;2022-10-26T08:11:19;10.70;99.90
15262;DHT22;7733;51.554;13.590;2022-10-26T08:13:45;10.80;99.90
15262;DHT22;7733;51.554;13.590;2022-10-26T08:16:11;11.00;99.90
15262;DHT22;7733;51.554;13.590;2022-10-26T08:18:37;11.20;99.90
15262;DHT22;7733;51.554;13.590;2022-10-26T08:21:05;11.40;99.90
15262;DHT22;7733;51.554;13.590;2022-10-26T08:23:34;11.50;99.90
15262;DHT22;7733;51.554;13.590;2022-10-26T08:26:00;11.60;99.90
15262;DHT22;7733;51.554;13.590;2022-10-26T08:28:28;11.70;99.90
15262;DHT22;7733;51.554;13.590;2022-10-26T08:30:55;11.90;99.90
15262;DHT22;7733;51.554;13.590;2022-10-26T08:33:22;12.00;99.90
15262;DHT22;7733;51.554;13.590;2022-10-26T08:35:53;12.10;99.90
15262;DHT22;7733;51.554;13.590;2022-10-26T08:38:20;12.20;99.90
15262;DHT22;7733;51.554;13.590;2022-10-26T08:40:45;12.40;99.90
15262;DHT22;7733;51.554;13.590;2022-10-26T08:43:21;12.50;99.90
15262;DHT22;7733;51.554;13.590;2022-10-26T08:46:02;12.70;99.90
15262;DHT22;7733;51.554;13.590;2022-10-26T08:48:37;12.80;99.90
15262;DHT22;7733;51.554;13.590;2022-10-26T08:51:16;12.80;99.90
15262;DHT22;7733;51.554;13.590;2022-10-26T08:53:57;13.00;99.90
15262;DHT22;7733;51.554;13.590;2022-10-26T08:56:43;13.20;99.90
15262;DHT22;7733;51.554;13.590;2022-10-26T08:59:35;13.10;99.90
15262;DHT22;7733;51.554;13.590;2022-10-26T09:02:12;13.10;99.90
15262;DHT22;7733;51.554;13.590;2022-10-26T09:04:39;13.00;99.90
15262;DHT22;7733;51.554;13.590;2022-10-26T09:07:24;13.00;99.90
15262;DHT22;7733;51.554;13.590;2022-10-26T09:10:29;13.00;99.90
15262;DHT22;7733;51.554;13.590;2022-10-26T09:13:45;13.10;99.90
15262;DHT22;7733;51.554;13.590;2022-10-26T09:16:53;13.20;99.90
15262;DHT22;7733;51.554;13.590;2022-10-26T09:19:50;13.50;99.90
15262;DHT22;7733;51.554;13.590;2022-10-26T09:22:44;13.60;99.90
15262;DHT22;7733;51.554;13.590;2022-10-26T09:25:21;13.70;99.90
15262;DHT22;7733;51.554;13.590;2022-10-26T09:27:55;13.70;99.90
15262;DHT22;7733;51.554;13.590;2022-10-26T09:30:23;14.00;99.90
15262;DHT22;7733;51.554;13.590;2022-10-26T09:32:51;13.90;99.90
15262;DHT22;7733;51.554;13.590;2022-10-26T09:35:24;14.00;99.90
15262;DHT22;7733;51.554;13.590;2022-10-26T09:41:04;14.00;99.90
15262;DHT22;7733;51.554;13.590;2022-10-26T09:43:51;14.10;99.90
15262;DHT22;7733;51.554;13.590;2022-10-26T09:46:33;14.00;99.90
15262;DHT22;7733;51.554;13.590;2022-10-26T09:49:27;14.00;99.90
15262;DHT22;7733;51.554;13.590;2022-10-26T09:52:00;14.00;99.90
15262;DHT22;7733;51.554;13.590;2022-10-26T09:54:26;14.20;99.90
15262;DHT22;7733;51.554;13.590;2022-10-26T09:56:54;14.30;99.90
15262;DHT22;7733;51.554;13.590;2022-10-26T09:59:24;14.40;99.90
15262;DHT22;7733;51.554;13.590;2022-10-26T10:01:50;14.50;99.90
15262;DHT22;7733;51.554;13.590;2022-10-26T10:04:17;14.70;99.90
15262;DHT22;7733;51.554;13.590;2022-10-26T10:06:46;14.80;99.90
15262;DHT22;7733;51.554;13.590;2022-10-26T10:09:21;14.80;99.90
15262;DHT22;7733;51.554;13.590;2022-10-26T10:11:53;14.90;99.90
15262;DHT22;7733;51.554;13.590;2022-10-26T10:14:31;15.00;99.90
15262;DHT22;7733;51.554;13.590;2022-10-26T10:17:05;15.20;99.90
15262;DHT22;7733;51.554;13.590;2022-10-26T10:19:36;15.40;99.90
15262;DHT22;7733;51.554;13.590;2022-10-26T10:24:41;15.80;99.90
15262;DHT22;7733;51.554;13.590;2022-10-26T10:27:17;15.80;99.90
15262;DHT22;7733;51.554;13.590;2022-10-26T10:29:46;15.90;99.90
15262;DHT22;7733;51.554;13.590;2022-10-26T10:32:19;16.10;99.90
15262;DHT22;7733;51.554;13.590;2022-10-26T10:34:50;16.20;99.90
15262;DHT22;7733;51.554;13.590;2022-10-26T10:37:25;16.30;99.90
15262;DHT22;7733;51.554;13.590;2022-10-26T10:40:05;16.40;99.90
15262;DHT22;7733;51.554;13.590;2022-10-26T10:42:36;16.50;99.90
15262;DHT22;7733;51.554;13.590;2022-10-26T10:45:06;16.70;99.90
15262;DHT22;7733;51.554;13.590;2022-10-26T10:48:01;16.90;99.90
15262;DHT22;7733;51.554;13.590;2022-10-26T10:50:30;17.00;99.90
15262;DHT22;7733;51.554;13.590;2022-10-26T10:56:12;17.20;99.90
15262;DHT22;7733;51.554;13.590;2022-10-26T10:59:06;17.30;99.90
15262;DHT22;7733;51.554;13.590;2022-10-26T11:04:48;17.40;99.90
15262;DHT22;7733;51.554;13.590;2022-10-26T11:07:17;17.50;99.90
15262;DHT22;7733;51.554;13.590;2022-10-26T11:09:46;17.70;99.90
15262;DHT22;7733;51.554;13.590;2022-10-26T11:12:30;17.80;99.90
15262;DHT22;7733;51.554;13.590;2022-10-26T11:15:09;18.00;99.90
15262;DHT22;7733;51.554;13.590;2022-10-26T11:18:13;18.00;99.90
15262;DHT22;7733;51.554;13.590;2022-10-26T11:20:49;18.20;99.90
15262;DHT22;7733;51.554;13.590;2022-10-26T11:23:37;18.30;99.90
15262;DHT22;7733;51.554;13.590;2022-10-26T11:26:17;18.30;99.90
15262;DHT22;7733;51.554;13.590;2022-10-26T11:29:01;18.40;99.90
15262;DHT22;7733;51.554;13.590;2022-10-26T11:31:36;18.50;99.90
15262;DHT22;7733;51.554;13.590;2022-10-26T11:34:28;18.40;99.90
15262;DHT22;7733;51.554;13.590;2022-10-26T11:37:47;18.40;99.90
15262;DHT22;7733;51.554;13.590;2022-10-26T11:40:37;18.40;99.90
15262;DHT22;7733;51.554;13.590;2022-10-26T11:43:44;18.30;99.90
15262;DHT22;7733;51.554;13.590;2022-10-26T11:46:14;18.50;99.90
15262;DHT22;7733;51.554;13.590;2022-10-26T11:51:35;18.70;99.90
15262;DHT22;7733;51.554;13.590;2022-10-26T11:54:36;18.70;99.90
15262;DHT22;7733;51.554;13.590;2022-10-26T11:57:08;18.80;99.90
15262;DHT22;7733;51.554;13.590;2022-10-26T11:59:40;19.00;99.90
15262;DHT22;7733;51.554;13.590;2022-10-26T12:02:19;18.80;99.90
15262;DHT22;7733;51.554;13.590;2022-10-26T12:05:03;18.70;99.90
15262;DHT22;7733;51.554;13.590;2022-10-26T12:07:39;18.80;99.90
15262;DHT22;7733;51.554;13.590;2022-10-26T12:10:29;18.80;99.90
15262;DHT22;7733;51.554;13.590;2022-10-26T12:13:30;18.80;99.90
15262;DHT22;7733;51.554;13.590;2022-10-26T12:16:18;18.80;99.90
15262;DHT22;7733;51.554;13.590;2022-10-26T12:18:57;18.80;99.90
15262;DHT22;7733;51.554;13.590;2022-10-26T12:21:30;18.90;99.90
15262;DHT22;7733;51.554;13.590;2022-10-26T12:27:00;19.00;99.90
15262;DHT22;7733;51.554;13.590;2022-10-26T12:29:48;19.00;99.90
15262;DHT22;7733;51.554;13.590;2022-10-26T12:35:41;19.10;99.90
15262;DHT22;7733;51.554;13.590;2022-10-26T12:40:47;19.10;99.90
15262;DHT22;7733;51.554;13.590;2022-10-26T12:45:46;19.30;99.90
15262;DHT22;7733;51.554;13.590;2022-10-26T12:48:44;19.40;99.90
15262;DHT22;7733;51.554;13.590;2022-10-26T12:56:34;19.10;99.90
15262;DHT22;7733;51.554;13.590;2022-10-26T12:59:28;19.20;99.90
15262;DHT22;7733;51.554;13.590;2022-10-26T13:08:39;19.10;99.90
15262;DHT22;7733;51.554;13.590;2022-10-26T13:11:17;19.30;99.90
15262;DHT22;7733;51.554;13.590;2022-10-26T13:13:43;19.30;99.90
15262;DHT22;7733;51.554;13.590;2022-10-26T13:16:16;19.50;99.90
15262;DHT22;7733;51.554;13.590;2022-10-26T13:18:43;19.50;99.90
15262;DHT22;7733;51.554;13.590;2022-10-26T13:21:15;19.60;99.90
15262;DHT22;7733;51.554;13.590;2022-10-26T13:23:45;19.60;99.90
15262;DHT22;7733;51.554;13.590;2022-10-26T13:26:24;19.60;99.90
15262;DHT22;7733;51.554;13.590;2022-10-26T13:28:54;19.60;99.90
15262;DHT22;7733;51.554;13.590;2022-10-26T13:34:03;19.20;99.90
15262;DHT22;7733;51.554;13.590;2022-10-26T13:36:56;19.30;99.90
15262;DHT22;7733;51.554;13.590;2022-10-26T13:39:31;19.20;99.90
15262;DHT22;7733;51.554;13.590;2022-10-26T13:42:01;19.00;99.90
15262;DHT22;7733;51.554;13.590;2022-10-26T13:44:56;18.80;99.90
15262;DHT22;7733;51.554;13.590;2022-10-26T13:47:41;18.90;99.90
15262;DHT22;7733;51.554;13.590;2022-10-26T13:50:15;18.80;99.90
15262;DHT22;7733;51.554;13.590;2022-10-26T13:52:46;18.80;99.90
15262;DHT22;7733;51.554;13.590;2022-10-26T13:55:31;18.70;99.90
15262;DHT22;7733;51.554;13.590;2022-10-26T13:58:24;18.60;99.90
15262;DHT22;7733;51.554;13.590;2022-10-26T14:01:14;18.50;99.90
15262;DHT22;7733;51.554;13.590;2022-10-26T14:03:42;18.60;99.90
15262;DHT22;7733;51.554;13.590;2022-10-26T14:09:03;18.50;99.90
15262;DHT22;7733;51.554;13.590;2022-10-26T14:11:50;18.40;99.90
15262;DHT22;7733;51.554;13.590;2022-10-26T14:14:21;18.40;99.90
15262;DHT22;7733;51.554;13.590;2022-10-26T14:16:51;18.30;99.90
15262;DHT22;7733;51.554;13.590;2022-10-26T14:21:50;18.20;99.90
15262;DHT22;7733;51.554;13.590;2022-10-26T14:24:26;18.20;99.90
15262;DHT22;7733;51.554;13.590;2022-10-26T14:26:53;18.10;99.90
15262;DHT22;7733;51.554;13.590;2022-10-26T14:29:21;18.10;99.90
15262;DHT22;7733;51.554;13.590;2022-10-26T14:31:49;18.00;99.90
15262;DHT22;7733;51.554;13.590;2022-10-26T14:34:16;18.00;99.90
15262;DHT22;7733;51.554;13.590;2022-10-26T14:36:55;17.90;99.90
15262;DHT22;7733;51.554;13.590;2022-10-26T14:39:43;17.90;99.90
15262;DHT22;7733;51.554;13.590;2022-10-26T14:44:57;17.80;99.90
15262;DHT22;7733;51.554;13.590;2022-10-26T14:47:34;17.70;99.90
15262;DHT22;7733;51.554;13.590;2022-10-26T14:50:01;17.70;99.90
15262;DHT22;7733;51.554;13.590;2022-10-26T14:52:30;17.70;99.90
15262;DHT22;7733;51.554;13.590;2022-10-26T14:57:37;17.60;99.90
15262;DHT22;7733;51.554;13.590;2022-10-26T15:00:19;17.50;99.90
15262;DHT22;7733;51.554;13.590;2022-10-26T15:02:49;17.50;99.90
15262;DHT22;7733;51.554;13.590;2022-10-26T15:05:30;17.30;99.90
15262;DHT22;7733;51.554;13.590;2022-10-26T15:07:59;17.20;99.90
15262;DHT22;7733;51.554;13.590;2022-10-26T15:13:17;17.10;99.90
15262;DHT22;7733;51.554;13.590;2022-10-26T15:15:48;17.00;99.90
15262;DHT22;7733;51.554;13.590;2022-10-26T15:20:51;16.90;99.90
15262;DHT22;7733;51.554;13.590;2022-10-26T15:23:20;16.80;99.90
15262;DHT22;7733;51.554;13.590;2022-10-26T15:25:55;16.80;99.90
15262;DHT22;7733;51.554;13.590;2022-10-26T15:28:29;16.70;99.90
15262;DHT22;7733;51.554;13.590;2022-10-26T15:31:26;16.70;99.90
15262;DHT22;7733;51.554;13.590;2022-10-26T15:36:23;16.50;99.90
15262;DHT22;7733;51.554;13.590;2022-10-26T15:38:50;16.50;99.90
15262;DHT22;7733;51.554;13.590;2022-10-26T15:41:28;16.40;99.90
15262;DHT22;7733;51.554;13.590;2022-10-26T15:43:59;16.50;99.90
15262;DHT22;7733;51.554;13.590;2022-10-26T15:46:32;16.50;99.90
15262;DHT22;7733;51.554;13.590;2022-10-26T15:49:01;16.40;99.90
15262;DHT22;7733;51.554;13.590;2022-10-26T15:51:28;16.40;99.90
15262;DHT22;7733;51.554;13.590;2022-10-26T15:53:56;16.40;99.90
15262;DHT22;7733;51.554;13.590;2022-10-26T15:56:23;16.40;99.90
15262;DHT22;7733;51.554;13.590;2022-10-26T15:58:50;16.30;99.90
15262;DHT22;7733;51.554;13.590;2022-10-26T16:01:24;16.30;99.90
15262;DHT22;7733;51.554;13.590;2022-10-26T16:03:52;16.20;99.90
15262;DHT22;7733;51.554;13.590;2022-10-26T16:06:29;16.10;99.90
15262;DHT22;7733;51.554;13.590;2022-10-26T16:09:00;16.00;99.90
15262;DHT22;7733;51.554;13.590;2022-10-26T16:11:28;15.90;99.90
15262;DHT22;7733;51.554;13.590;2022-10-26T16:13:54;15.90;99.90
15262;DHT22;7733;51.554;13.590;2022-10-26T16:16:20;15.80;99.90
15262;DHT22;7733;51.554;13.590;2022-10-26T16:18:47;15.60;99.90
15262;DHT22;7733;51.554;13.590;2022-10-26T16:21:18;15.60;99.90
15262;DHT22;7733;51.554;13.590;2022-10-26T16:23:46;15.60;99.90
15262;DHT22;7733;51.554;13.590;2022-10-26T16:26:13;15.50;99.90
15262;DHT22;7733;51.554;13.590;2022-10-26T16:28:39;15.50;99.90
15262;DHT22;7733;51.554;13.590;2022-10-26T16:31:07;15.40;99.90
15262;DHT22;7733;51.554;13.590;2022-10-26T16:33:35;15.30;99.90
15262;DHT22;7733;51.554;13.590;2022-10-26T16:36:02;15.30;99.90
15262;DHT22;7733;51.554;13.590;2022-10-26T16:38:30;15.30;99.90
15262;DHT22;7733;51.554;13.590;2022-10-26T16:41:03;15.30;99.90
15262;DHT22;7733;51.554;13.590;2022-10-26T16:43:33;15.30;99.90
15262;DHT22;7733;51.554;13.590;2022-10-26T16:46:08;15.30;99.90
15262;DHT22;7733;51.554;13.590;2022-10-26T16:48:43;15.20;99.90
15262;DHT22;7733;51.554;13.590;2022-10-26T16:51:12;15.20;99.90
15262;DHT22;7733;51.554;13.590;2022-10-26T16:53:40;15.10;99.90
15262;DHT22;7733;51.554;13.590;2022-10-26T16:56:09;15.10;99.90
15262;DHT22;7733;51.554;13.590;2022-10-26T16:58:36;15.10;99.90
15262;DHT22;7733;51.554;13.590;2022-10-26T17:01:03;15.10;99.90
15262;DHT22;7733;51.554;13.590;2022-10-26T17:03:29;15.00;99.90
15262;DHT22;7733;51.554;13.590;2022-10-26T17:05:56;15.00;99.90
15262;DHT22;7733;51.554;13.590;2022-10-26T17:08:24;15.00;99.90
15262;DHT22;7733;51.554;13.590;2022-10-26T17:10:52;15.00;99.90
15262;DHT22;7733;51.554;13.590;2022-10-26T17:13:18;15.00;99.90
15262;DHT22;7733;51.554;13.590;2022-10-26T17:15:44;15.00;99.90
15262;DHT22;7733;51.554;13.590;2022-10-26T17:18:09;14.90;99.90
15262;DHT22;7733;51.554;13.590;2022-10-26T17:20:36;15.00;99.90
15262;DHT22;7733;51.554;13.590;2022-10-26T17:23:03;14.90;99.90
15262;DHT22;7733;51.554;13.590;2022-10-26T17:25:33;14.90;99.90
15262;DHT22;7733;51.554;13.590;2022-10-26T17:28:00;14.90;99.90
15262;DHT22;7733;51.554;13.590;2022-10-26T17:30:27;14.80;99.90
15262;DHT22;7733;51.554;13.590;2022-10-26T17:32:53;14.80;99.90
15262;DHT22;7733;51.554;13.590;2022-10-26T17:35:19;14.70;99.90
15262;DHT22;7733;51.554;13.590;2022-10-26T17:37:44;14.70;99.90
15262;DHT22;7733;51.554;13.590;2022-10-26T17:40:10;14.70;99.90
15262;DHT22;7733;51.554;13.590;2022-10-26T17:42:36;14.70;99.90